createdAt,value
2018-03-27T00:00:58.882Z,17.47
2018-03-27T00:03:27.116Z,16.47
2018-03-27T00:05:54.612Z,17.03
2018-03-27T00:08:22.862Z,17.00
2018-03-27T00:10:50.359Z,18.50
2018-03-27T00:13:18.594Z,18.40
2018-03-27T00:15:46.112Z,17.17
2018-03-27T00:18:13.585Z,16.63
2018-03-27T00:20:41.091Z,17.70
2018-03-27T00:23:08.587Z,14.87
2018-03-27T00:25:36.086Z,16.80
2018-03-27T00:28:15.387Z,18.57
2018-03-27T00:30:54.807Z,16.13
2018-03-27T00:33:34.811Z,16.37
2018-03-27T00:36:14.214Z,15.87
2018-03-27T00:38:53.446Z,16.53
2018-03-27T00:44:34.823Z,17.57
2018-03-27T00:47:02.298Z,16.67
2018-03-27T00:49:29.799Z,15.97
2018-03-27T00:51:58.079Z,15.67
2018-03-27T00:54:25.611Z,17.20
2018-03-27T00:56:53.087Z,18.00
2018-03-27T00:59:20.562Z,17.07
2018-03-27T01:01:48.077Z,15.37
2018-03-27T01:04:16.361Z,15.10
2018-03-27T01:06:43.842Z,16.87
2018-03-27T01:09:12.130Z,15.57
2018-03-27T01:11:40.377Z,17.87
2018-03-27T01:14:07.882Z,17.40
2018-03-27T01:16:36.225Z,16.13
2018-03-27T01:19:03.714Z,16.03
2018-03-27T01:21:31.312Z,15.97
2018-03-27T01:23:59.593Z,16.97
2018-03-27T01:26:27.076Z,17.67
2018-03-27T01:28:55.367Z,14.83
2018-03-27T01:31:22.846Z,17.00
2018-03-27T01:33:50.363Z,17.20
2018-03-27T01:36:17.870Z,17.53
2018-03-27T01:38:46.140Z,17.27
2018-03-27T01:41:13.614Z,15.30
2018-03-27T01:43:41.131Z,16.83
2018-03-27T01:46:08.644Z,15.60
2018-03-27T01:48:36.129Z,17.60
2018-03-27T01:51:03.631Z,16.83
2018-03-27T01:53:31.138Z,17.50
2018-03-27T01:55:58.722Z,17.00
2018-03-27T01:58:26.224Z,18.37
2018-03-27T02:00:54.505Z,17.83
2018-03-27T02:03:21.991Z,18.67
2018-03-27T02:05:49.828Z,16.63
2018-03-27T02:08:17.309Z,18.00
2018-03-27T02:10:44.299Z,17.20
2018-03-27T02:13:18.144Z,17.70
2018-03-27T02:15:51.471Z,17.70
2018-03-27T02:18:24.615Z,19.30
2018-03-27T02:20:57.798Z,17.30
2018-03-27T02:23:26.083Z,19.93
2018-03-27T02:25:53.575Z,18.27
2018-03-27T02:28:21.110Z,19.10
2018-03-27T02:30:48.613Z,18.20
2018-03-27T02:33:16.124Z,20.00
2018-03-27T02:35:43.730Z,18.30
2018-03-27T02:38:11.246Z,19.30
2018-03-27T02:40:39.514Z,19.03
2018-03-27T02:43:07.010Z,18.07
2018-03-27T02:45:34.509Z,18.00
2018-03-27T02:48:02.032Z,18.00
2018-03-27T02:50:30.305Z,18.90
2018-03-27T02:52:57.833Z,19.50
2018-03-27T02:55:26.094Z,20.13
2018-03-27T02:57:54.394Z,17.80
2018-03-27T03:00:22.666Z,18.03
2018-03-27T03:02:50.142Z,17.43
2018-03-27T03:05:17.649Z,16.50
2018-03-27T03:07:45.143Z,18.70
2018-03-27T03:10:12.679Z,19.50
2018-03-27T03:12:40.149Z,17.70
2018-03-27T03:15:07.628Z,19.20
2018-03-27T03:17:35.158Z,18.17
2018-03-27T03:20:02.638Z,17.70
2018-03-27T03:22:30.158Z,17.30
2018-03-27T03:24:57.635Z,17.90
2018-03-27T03:27:25.149Z,16.37
2018-03-27T03:29:52.642Z,16.40
2018-03-27T03:32:20.926Z,16.20
2018-03-27T03:34:49.226Z,19.60
2018-03-27T03:37:16.700Z,18.73
2018-03-27T03:39:44.206Z,19.37
2018-03-27T03:42:11.691Z,18.60
2018-03-27T03:44:39.246Z,19.60
2018-03-27T03:47:06.751Z,17.90
2018-03-27T03:49:34.266Z,18.70
2018-03-27T03:52:01.764Z,18.10
2018-03-27T03:54:29.258Z,18.03
2018-03-27T03:56:56.754Z,19.30
2018-03-27T03:59:24.242Z,18.07
2018-03-27T04:01:51.766Z,18.80
2018-03-27T04:04:19.238Z,21.83
2018-03-27T04:06:46.745Z,20.10
2018-03-27T04:09:14.234Z,18.73
2018-03-27T04:11:41.747Z,18.20
2018-03-27T04:14:09.222Z,17.70
2018-03-27T04:16:36.753Z,19.30
2018-03-27T04:19:04.254Z,18.33
2018-03-27T04:21:31.734Z,19.80
2018-03-27T04:23:59.244Z,19.40
2018-03-27T04:26:26.722Z,19.90
2018-03-27T04:28:54.294Z,19.50
2018-03-27T04:31:21.797Z,22.93
2018-03-27T04:33:49.311Z,20.30
2018-03-27T04:36:17.562Z,22.10
2018-03-27T04:38:45.833Z,21.93
2018-03-27T04:41:13.341Z,22.90
2018-03-27T04:43:40.858Z,19.83
2018-03-27T04:46:08.446Z,21.70
2018-03-27T04:48:35.927Z,22.63
2018-03-27T04:51:03.443Z,20.63
2018-03-27T04:53:31.711Z,21.40
2018-03-27T04:55:59.217Z,21.50
2018-03-27T04:58:26.706Z,20.90
2018-03-27T05:00:54.217Z,21.73
2018-03-27T05:03:21.725Z,21.10
2018-03-27T05:05:49.936Z,21.40
2018-03-27T05:08:17.426Z,22.17
2018-03-27T05:10:44.910Z,20.67
2018-03-27T05:13:12.410Z,21.70
2018-03-27T05:15:40.651Z,23.67
2018-03-27T05:18:08.218Z,23.87
2018-03-27T05:20:35.702Z,22.40
2018-03-27T05:23:03.213Z,22.47
2018-03-27T05:25:31.518Z,22.73
2018-03-27T05:27:59.037Z,24.10
2018-03-27T05:30:26.517Z,23.47
2018-03-27T05:32:54.035Z,24.10
2018-03-27T05:35:21.542Z,23.03
2018-03-27T05:37:49.036Z,23.87
2018-03-27T05:40:16.583Z,22.50
2018-03-27T05:42:44.102Z,25.43
2018-03-27T05:45:12.388Z,23.30
2018-03-27T05:47:40.672Z,23.47
2018-03-27T05:50:08.914Z,23.50
2018-03-27T05:52:36.503Z,25.60
2018-03-27T05:55:04.112Z,21.87
2018-03-27T06:00:24.184Z,25.23
2018-03-27T06:02:51.989Z,25.27
2018-03-27T06:11:05.996Z,25.27
2018-03-27T06:13:33.483Z,22.70
2018-03-27T06:18:53.534Z,23.03
2018-03-27T06:24:12.839Z,20.97
2018-03-27T06:29:33.728Z,20.73
2018-03-27T06:34:53.971Z,19.17
2018-03-27T06:37:21.482Z,19.80
2018-03-27T06:39:50.846Z,20.00
2018-03-27T06:42:21.763Z,20.70
2018-03-27T06:50:36.028Z,18.13
2018-03-27T06:53:04.316Z,18.83
2018-03-27T06:55:31.861Z,22.27
2018-03-27T07:03:46.933Z,22.77
2018-03-27T07:06:21.349Z,20.30
2018-03-27T07:08:49.636Z,19.70
2018-03-27T07:11:18.085Z,18.60
2018-03-27T07:13:45.647Z,19.20
2018-03-27T07:16:13.152Z,19.43
2018-03-27T07:18:40.673Z,20.33
2018-03-27T07:21:08.202Z,18.37
2018-03-27T07:23:36.440Z,15.23
2018-03-27T07:26:03.914Z,16.30
2018-03-27T07:28:31.415Z,14.73
2018-03-27T07:30:59.655Z,15.17
2018-03-27T07:33:27.925Z,12.90
2018-03-27T07:35:55.411Z,12.70
2018-03-27T07:38:23.678Z,13.20
2018-03-27T07:40:51.145Z,12.33
2018-03-27T07:43:19.411Z,11.23
2018-03-27T07:45:46.890Z,9.97
2018-03-27T07:48:14.391Z,9.43
2018-03-27T07:50:41.858Z,10.90
2018-03-27T07:53:09.346Z,7.50
2018-03-27T07:55:37.583Z,7.70
2018-03-27T07:58:05.074Z,9.00
2018-03-27T08:00:32.547Z,8.83
2018-03-27T08:03:00.836Z,7.63
2018-03-27T08:05:29.067Z,9.10
2018-03-27T08:07:56.526Z,7.80
2018-03-27T08:10:24.022Z,8.57
2018-03-27T08:12:51.490Z,7.63
2018-03-27T08:15:18.987Z,7.00
2018-03-27T08:17:46.458Z,6.70
2018-03-27T08:20:13.959Z,7.20
2018-03-27T08:22:42.210Z,7.30
2018-03-27T08:25:09.705Z,7.20
2018-03-27T08:27:37.175Z,6.93
2018-03-27T08:30:04.670Z,8.53
2018-03-27T08:32:32.147Z,7.73
2018-03-27T08:35:00.410Z,6.73
2018-03-27T08:37:27.878Z,7.20
2018-03-27T08:39:55.371Z,8.60
2018-03-27T08:42:22.858Z,8.60
2018-03-27T08:44:50.346Z,8.73
2018-03-27T08:47:17.841Z,9.20
2018-03-27T08:49:45.318Z,12.13
2018-03-27T08:52:12.812Z,9.80
2018-03-27T08:54:40.283Z,11.90
2018-03-27T08:57:07.784Z,10.73
2018-03-27T08:59:35.258Z,12.10
2018-03-27T09:02:02.764Z,12.37
2018-03-27T09:04:31.002Z,12.43
2018-03-27T09:06:58.489Z,12.90
2018-03-27T09:09:25.978Z,12.73
2018-03-27T09:11:53.448Z,14.10
2018-03-27T09:14:20.954Z,15.50
2018-03-27T09:16:48.426Z,15.57
2018-03-27T09:19:15.929Z,17.50
2018-03-27T09:21:43.399Z,17.10
2018-03-27T09:24:10.908Z,16.60
2018-03-27T09:26:39.153Z,17.63
2018-03-27T09:29:06.631Z,18.27
2018-03-27T09:31:34.130Z,18.93
2018-03-27T09:34:01.616Z,18.57
2018-03-27T09:36:29.118Z,18.13
2018-03-27T09:38:57.362Z,19.20
2018-03-27T09:41:24.866Z,17.33
2018-03-27T09:43:53.136Z,16.83
2018-03-27T09:46:21.378Z,18.70
2018-03-27T09:48:49.646Z,16.83
2018-03-27T09:51:17.121Z,17.00
2018-03-27T09:53:44.621Z,17.57
2018-03-27T09:56:12.131Z,17.30
2018-03-27T09:58:39.631Z,17.63
2018-03-27T10:01:09.426Z,17.97
2018-03-27T10:03:37.707Z,19.13
2018-03-27T10:06:05.978Z,19.10
2018-03-27T10:08:34.231Z,19.07
2018-03-27T10:11:01.739Z,19.97
2018-03-27T10:16:03.099Z,20.00
2018-03-27T10:18:31.338Z,18.43
2018-03-27T10:20:58.835Z,18.50
2018-03-27T10:23:26.319Z,19.30
2018-03-27T10:25:53.830Z,20.03
2018-03-27T10:28:22.070Z,18.73
2018-03-27T10:30:49.586Z,18.50
2018-03-27T10:33:17.059Z,17.90
2018-03-27T10:35:44.550Z,20.57
2018-03-27T10:38:12.057Z,19.40
2018-03-27T10:40:39.532Z,21.13
2018-03-27T10:43:07.036Z,19.57
2018-03-27T10:45:34.506Z,19.00
2018-03-27T10:48:02.015Z,20.37
2018-03-27T10:50:29.495Z,19.80
2018-03-27T10:52:57.006Z,21.40
2018-03-27T10:55:25.264Z,19.13
2018-03-27T10:57:53.541Z,18.03
2018-03-27T11:00:21.786Z,18.47
2018-03-27T11:02:49.270Z,20.60
2018-03-27T11:05:16.772Z,18.20
2018-03-27T11:07:44.270Z,17.70
2018-03-27T11:10:11.743Z,18.87
2018-03-27T11:12:39.264Z,18.20
2018-03-27T11:15:06.730Z,17.77
2018-03-27T11:17:34.270Z,17.77
2018-03-27T11:20:01.721Z,16.80
2018-03-27T11:22:29.220Z,16.90
2018-03-27T11:24:56.703Z,19.00
2018-03-27T11:27:24.983Z,17.83
2018-03-27T11:29:53.226Z,19.47
2018-03-27T11:32:20.707Z,18.13
2018-03-27T11:34:48.982Z,19.20
2018-03-27T11:37:16.462Z,17.87
2018-03-27T11:39:44.735Z,21.47
2018-03-27T11:42:12.987Z,19.20
2018-03-27T11:44:40.463Z,20.77
2018-03-27T11:47:08.731Z,17.47
2018-03-27T11:49:36.987Z,16.40
2018-03-27T11:52:04.499Z,15.60
2018-03-27T11:54:32.005Z,13.90
2018-03-27T11:56:59.478Z,14.70
2018-03-27T11:59:26.988Z,14.63
2018-03-27T12:01:54.458Z,18.50
2018-03-27T12:04:21.943Z,16.20
2018-03-27T12:06:49.443Z,17.27
2018-03-27T12:09:16.915Z,16.67
2018-03-27T12:11:44.413Z,16.80
2018-03-27T12:14:11.894Z,16.43
2018-03-27T12:16:40.166Z,17.00
2018-03-27T12:19:08.415Z,16.33
2018-03-27T12:21:35.907Z,17.13
2018-03-27T12:24:04.174Z,18.00
2018-03-27T12:26:31.679Z,19.20
2018-03-27T12:28:59.159Z,18.07
2018-03-27T12:31:26.660Z,21.17
2018-03-27T12:33:54.902Z,21.93
2018-03-27T12:36:22.402Z,20.50
2018-03-27T12:38:50.681Z,21.20
2018-03-27T12:41:18.967Z,22.27
2018-03-27T12:43:46.434Z,18.87
2018-03-27T12:46:13.915Z,19.20
2018-03-27T12:48:41.426Z,17.50
2018-03-27T12:51:09.663Z,17.33
2018-03-27T12:53:37.141Z,16.57
2018-03-27T12:56:04.641Z,15.30
2018-03-27T12:58:32.130Z,16.03
2018-03-27T13:00:59.623Z,15.93
2018-03-27T13:03:27.891Z,15.60
2018-03-27T13:05:55.364Z,15.07
2018-03-27T13:08:23.640Z,16.83
2018-03-27T13:10:51.886Z,15.60
2018-03-27T13:13:19.384Z,16.23
2018-03-27T13:15:47.642Z,15.50
2018-03-27T13:18:15.108Z,16.77
2018-03-27T13:20:43.371Z,14.50
2018-03-27T13:23:10.842Z,13.90
2018-03-27T13:25:39.107Z,13.10
2018-03-27T13:28:06.608Z,11.97
2018-03-27T13:30:34.079Z,12.20
2018-03-27T13:33:01.588Z,10.17
2018-03-27T13:35:29.839Z,10.00
2018-03-27T13:37:57.338Z,12.50
2018-03-27T13:40:25.580Z,10.50
2018-03-27T13:42:53.074Z,11.83
2018-03-27T13:45:21.338Z,11.03
2018-03-27T13:47:49.578Z,12.03
2018-03-27T13:50:17.078Z,21.23
2018-03-27T13:52:45.314Z,13.03
2018-03-27T13:55:12.826Z,12.87
2018-03-27T13:57:40.317Z,12.47
2018-03-27T14:00:09.746Z,11.70
2018-03-27T14:02:37.238Z,11.80
2018-03-27T14:05:05.508Z,10.20
2018-03-27T14:07:33.743Z,9.70
2018-03-27T14:10:01.238Z,10.40
2018-03-27T14:12:29.502Z,9.00
2018-03-27T14:14:57.051Z,8.90
2018-03-27T14:17:24.505Z,8.57
2018-03-27T14:19:51.990Z,9.20
2018-03-27T14:22:20.250Z,9.10
2018-03-27T14:24:47.715Z,9.30
2018-03-27T14:27:15.225Z,7.90
2018-03-27T14:29:42.700Z,9.83
2018-03-27T14:32:10.171Z,9.50
2018-03-27T14:34:37.668Z,8.60
2018-03-27T14:37:05.903Z,9.03
2018-03-27T14:39:33.397Z,9.17
2018-03-27T14:42:01.628Z,7.03
2018-03-27T14:44:29.135Z,7.70
2018-03-27T14:46:57.361Z,6.80
2018-03-27T14:49:24.863Z,5.93
2018-03-27T14:51:53.097Z,7.23
2018-03-27T14:54:20.572Z,7.13
2018-03-27T14:56:48.082Z,7.10
2018-03-27T14:59:15.554Z,7.17
2018-03-27T15:01:43.021Z,6.50
2018-03-27T15:04:10.514Z,6.33
2018-03-27T15:06:38.754Z,6.77
2018-03-27T15:09:06.252Z,7.23
2018-03-27T15:11:34.506Z,5.17
2018-03-27T15:14:01.991Z,5.50
2018-03-27T15:16:30.246Z,5.90
2018-03-27T15:18:57.711Z,6.50
2018-03-27T15:21:25.203Z,6.60
2018-03-27T15:23:52.776Z,5.40
2018-03-27T15:26:20.270Z,5.77
2018-03-27T15:28:47.739Z,5.80
2018-03-27T15:31:15.206Z,4.90
2018-03-27T15:33:43.479Z,5.77
2018-03-27T15:36:10.958Z,6.23
2018-03-27T15:38:39.209Z,5.20
2018-03-27T15:41:06.687Z,4.83
2018-03-27T15:43:34.961Z,4.47
2018-03-27T15:46:03.220Z,4.97
2018-03-27T15:48:30.716Z,5.10
2018-03-27T15:50:58.182Z,5.00
2018-03-27T15:53:25.681Z,4.20
2018-03-27T15:55:53.147Z,3.50
2018-03-27T15:58:21.020Z,3.83
2018-03-27T16:00:49.319Z,4.80
2018-03-27T16:03:17.566Z,3.67
2018-03-27T16:05:45.034Z,5.10
2018-03-27T16:08:12.522Z,4.00
2018-03-27T16:10:40.788Z,3.80
2018-03-27T16:13:09.020Z,3.87
2018-03-27T16:15:36.523Z,4.00
2018-03-27T16:18:04.757Z,4.10
2018-03-27T16:20:32.231Z,3.70
2018-03-27T16:22:59.745Z,3.30
2018-03-27T16:25:27.217Z,4.70
2018-03-27T16:27:54.786Z,3.60
2018-03-27T16:30:22.252Z,4.17
2018-03-27T16:32:49.738Z,4.63
2018-03-27T16:35:17.971Z,4.40
2018-03-27T16:37:45.486Z,4.60
2018-03-27T16:40:13.721Z,4.70
2018-03-27T16:42:41.231Z,4.27
2018-03-27T16:45:08.737Z,4.10
2018-03-27T16:47:36.199Z,4.17
2018-03-27T16:50:03.695Z,4.37
2018-03-27T16:52:31.958Z,4.10
2018-03-27T16:55:00.245Z,3.77
2018-03-27T16:57:27.724Z,3.63
2018-03-27T16:59:55.190Z,3.17
2018-03-27T17:02:22.678Z,4.80
2018-03-27T17:04:50.141Z,6.17
2018-03-27T17:07:17.635Z,2.90
2018-03-27T17:09:45.892Z,2.93
2018-03-27T17:12:13.388Z,2.43
2018-03-27T17:14:40.881Z,2.27
2018-03-27T17:17:08.380Z,2.50
2018-03-27T17:19:36.616Z,2.27
2018-03-27T17:22:04.115Z,2.17
2018-03-27T17:24:32.343Z,2.63
2018-03-27T17:26:59.837Z,2.27
2018-03-27T17:29:27.306Z,2.37
2018-03-27T17:31:55.570Z,2.87
2018-03-27T17:34:23.043Z,2.40
2018-03-27T17:36:51.275Z,2.30
2018-03-27T17:39:19.539Z,1.77
2018-03-27T17:41:46.998Z,1.70
2018-03-27T17:44:14.495Z,1.70
2018-03-27T17:46:41.970Z,1.87
2018-03-27T17:49:10.231Z,1.77
2018-03-27T17:51:37.697Z,2.47
2018-03-27T17:54:05.963Z,1.83
2018-03-27T17:56:33.430Z,1.97
2018-03-27T17:59:01.706Z,2.23
2018-03-27T18:01:29.939Z,1.43
2018-03-27T18:03:57.427Z,1.70
2018-03-27T18:06:24.914Z,1.97
2018-03-27T18:08:53.188Z,2.07
2018-03-27T18:11:21.417Z,1.50
2018-03-27T18:13:48.910Z,3.70
2018-03-27T18:16:17.139Z,2.20
2018-03-27T18:18:44.623Z,1.80
2018-03-27T18:21:12.096Z,4.87
2018-03-27T18:23:39.598Z,1.90
2018-03-27T18:26:07.074Z,1.67
2018-03-27T18:28:34.536Z,1.20
2018-03-27T18:31:02.052Z,2.63
2018-03-27T18:33:30.312Z,2.03
2018-03-27T18:35:58.568Z,1.60
2018-03-27T18:38:26.043Z,1.53
2018-03-27T18:40:54.304Z,1.70
2018-03-27T18:43:21.816Z,1.80
2018-03-27T18:45:49.330Z,1.67
2018-03-27T18:48:16.823Z,1.63
2018-03-27T18:50:44.291Z,2.17
2018-03-27T18:53:11.787Z,6.33
2018-03-27T18:55:39.246Z,1.50
2018-03-27T18:58:07.515Z,1.90
2018-03-27T19:00:34.986Z,1.90
2018-03-27T19:03:02.486Z,1.60
2018-03-27T19:05:29.962Z,1.90
2018-03-27T19:07:57.454Z,1.50
2018-03-27T19:10:24.927Z,1.40
2018-03-27T19:12:53.194Z,1.33
2018-03-27T19:15:20.683Z,1.60
2018-03-27T19:17:48.963Z,2.00
2018-03-27T19:20:17.198Z,1.70
2018-03-27T19:22:44.697Z,2.40
2018-03-27T19:25:12.960Z,2.00
2018-03-27T19:27:41.194Z,2.10
2018-03-27T19:30:08.691Z,1.47
2018-03-27T19:32:36.930Z,1.90
2018-03-27T19:35:04.434Z,1.70
2018-03-27T19:37:32.694Z,1.97
2018-03-27T19:40:00.171Z,2.43
2018-03-27T19:42:28.463Z,2.10
2018-03-27T19:44:55.934Z,2.23
2018-03-27T19:47:23.427Z,1.93
2018-03-27T19:49:50.917Z,2.13
2018-03-27T19:52:19.182Z,1.90
2018-03-27T19:54:46.651Z,2.50
2018-03-27T19:57:14.888Z,2.70
2018-03-27T19:59:42.382Z,2.80
2018-03-27T20:02:10.606Z,2.17
2018-03-27T20:04:38.102Z,3.43
2018-03-27T20:07:05.573Z,3.17
2018-03-27T20:09:33.835Z,2.70
2018-03-27T20:12:01.310Z,3.27
2018-03-27T20:14:29.575Z,2.90
2018-03-27T20:16:57.042Z,2.87
2018-03-27T20:19:25.314Z,3.80
2018-03-27T20:21:52.802Z,4.20
2018-03-27T20:24:20.310Z,3.70
2018-03-27T20:26:47.782Z,4.30
2018-03-27T20:29:15.268Z,3.80
2018-03-27T20:31:43.526Z,4.60
2018-03-27T20:34:11.764Z,4.70
2018-03-27T20:36:39.265Z,4.53
2018-03-27T20:39:07.513Z,5.40
2018-03-27T20:41:35.775Z,4.40
2018-03-27T20:44:03.264Z,4.90
2018-03-27T20:46:30.734Z,6.13
2018-03-27T20:48:59.045Z,6.13
2018-03-27T20:51:27.278Z,5.27
2018-03-27T20:53:55.547Z,6.63
2018-03-27T20:56:23.017Z,5.87
2018-03-27T20:58:51.282Z,6.20
2018-03-27T21:01:18.772Z,6.60
2018-03-27T21:03:46.303Z,7.33
2018-03-27T21:06:14.576Z,8.93
2018-03-27T21:08:42.074Z,8.17
2018-03-27T21:11:09.599Z,7.47
2018-03-27T21:13:37.871Z,8.30
2018-03-27T21:16:05.422Z,8.57
2018-03-27T21:18:32.929Z,7.47
2018-03-27T21:21:00.476Z,8.43
2018-03-27T21:23:28.003Z,8.07
2018-03-27T21:25:55.500Z,7.40
2018-03-27T21:28:23.031Z,8.17
2018-03-27T21:30:51.304Z,8.93
2018-03-27T21:33:19.612Z,8.90
2018-03-27T21:35:47.144Z,8.40
2018-03-27T21:38:15.436Z,8.97
2018-03-27T21:40:43.727Z,7.87
2018-03-27T21:43:11.259Z,8.40
2018-03-27T21:45:39.551Z,8.53
2018-03-27T21:48:07.839Z,8.20
2018-03-27T21:50:35.953Z,9.43
2018-03-27T21:53:03.484Z,8.30
2018-03-27T21:55:31.086Z,8.80
2018-03-27T21:57:59.792Z,8.73
2018-03-27T22:00:28.056Z,7.23
2018-03-27T22:02:55.584Z,7.73
2018-03-27T22:05:23.855Z,8.83
2018-03-27T22:07:51.396Z,9.07
2018-03-27T22:10:18.963Z,9.37
2018-03-27T22:12:46.478Z,8.67
2018-03-27T22:15:14.764Z,9.27
2018-03-27T22:17:43.039Z,9.77
2018-03-27T22:20:11.932Z,10.13
2018-03-27T22:22:40.207Z,10.47
2018-03-27T22:25:08.480Z,10.33
2018-03-27T22:27:37.704Z,13.10
2018-03-27T22:30:05.215Z,14.40
2018-03-27T22:32:32.757Z,15.20
2018-03-27T22:35:01.180Z,14.33
2018-03-27T22:37:29.487Z,15.23
2018-03-27T22:39:56.995Z,19.90
2018-03-27T22:42:24.508Z,19.80
2018-03-27T22:44:52.080Z,20.47
2018-03-27T22:47:19.870Z,20.80
2018-03-27T22:49:48.419Z,24.30
2018-03-27T22:52:15.926Z,22.50
2018-03-27T22:54:43.458Z,25.23
2018-03-27T22:57:11.585Z,25.60
2018-03-27T22:59:39.874Z,24.70
2018-03-27T23:02:07.384Z,27.90
2018-03-27T23:04:34.891Z,25.10
2018-03-27T23:07:02.412Z,25.63
2018-03-27T23:09:29.922Z,24.43
2018-03-27T23:11:57.438Z,24.30
2018-03-27T23:14:25.771Z,25.60
2018-03-27T23:16:54.191Z,25.70
2018-03-27T23:19:21.688Z,24.17
2018-03-27T23:21:49.219Z,26.47
2018-03-27T23:24:18.494Z,23.20
2018-03-27T23:26:46.119Z,24.70
2018-03-27T23:29:13.678Z,24.10
2018-03-27T23:31:41.180Z,26.87
2018-03-27T23:34:08.731Z,24.60
2018-03-27T23:36:36.236Z,26.47
2018-03-27T23:39:03.763Z,23.27
2018-03-27T23:41:31.375Z,22.60
2018-03-27T23:46:32.775Z,24.97
2018-03-27T23:49:00.301Z,25.67
2018-03-27T23:51:27.803Z,27.13
2018-03-27T23:53:55.425Z,25.77
2018-03-27T23:56:22.955Z,24.90
2018-03-27T23:58:51.243Z,23.70
